sensor_id;sensor_type;location;lat;lon;timestamp;P1;durP1;ratioP1;P2;durP2;ratioP2
64459;SDS011;50828;53.756;21.140;2023-12-07T00:00:21;51.30;;;19.40;;
64459;SDS011;50828;53.756;21.140;2023-12-07T00:05:28;48.10;;;17.10;;
64459;SDS011;50828;53.756;21.140;2023-12-07T00:10:36;44.80;;;17.30;;
64459;SDS011;50828;53.756;21.140;2023-12-07T00:15:43;50.50;;;17.30;;
64459;SDS011;50828;53.756;21.140;2023-12-07T00:20:50;52.30;;;17.40;;
64459;SDS011;50828;53.756;21.140;2023-12-07T00:25:58;53.50;;;17.60;;
64459;SDS011;50828;53.756;21.140;2023-12-07T00:31:05;49.20;;;17.50;;
64459;SDS011;50828;53.756;21.140;2023-12-07T00:36:14;51.00;;;17.30;;
64459;SDS011;50828;53.756;21.140;2023-12-07T00:41:21;53.20;;;19.50;;
64459;SDS011;50828;53.756;21.140;2023-12-07T00:46:29;50.10;;;17.50;;
64459;SDS011;50828;53.756;21.140;2023-12-07T00:51:36;54.50;;;17.30;;
64459;SDS011;50828;53.756;21.140;2023-12-07T00:56:43;46.90;;;15.10;;
64459;SDS011;50828;53.756;21.140;2023-12-07T01:01:51;53.80;;;18.80;;
64459;SDS011;50828;53.756;21.140;2023-12-07T01:06:59;54.20;;;18.50;;
64459;SDS011;50828;53.756;21.140;2023-12-07T01:12:07;57.80;;;19.20;;
64459;SDS011;50828;53.756;21.140;2023-12-07T01:17:14;55.80;;;17.80;;
64459;SDS011;50828;53.756;21.140;2023-12-07T01:22:21;59.30;;;18.00;;
64459;SDS011;50828;53.756;21.140;2023-12-07T01:27:29;58.60;;;18.40;;
64459;SDS011;50828;53.756;21.140;2023-12-07T01:32:36;66.20;;;19.60;;
64459;SDS011;50828;53.756;21.140;2023-12-07T01:37:44;65.70;;;21.00;;
64459;SDS011;50828;53.756;21.140;2023-12-07T01:42:52;59.40;;;18.70;;
64459;SDS011;50828;53.756;21.140;2023-12-07T01:47:59;56.20;;;18.90;;
64459;SDS011;50828;53.756;21.140;2023-12-07T01:53:07;64.80;;;19.60;;
64459;SDS011;50828;53.756;21.140;2023-12-07T01:58:17;67.30;;;19.80;;
64459;SDS011;50828;53.756;21.140;2023-12-07T02:03:25;88.70;;;26.80;;
64459;SDS011;50828;53.756;21.140;2023-12-07T02:08:34;67.70;;;20.50;;
64459;SDS011;50828;53.756;21.140;2023-12-07T02:13:45;67.90;;;20.50;;
64459;SDS011;50828;53.756;21.140;2023-12-07T02:18:56;62.60;;;19.20;;
64459;SDS011;50828;53.756;21.140;2023-12-07T02:24:09;69.30;;;21.40;;
64459;SDS011;50828;53.756;21.140;2023-12-07T02:29:25;67.20;;;20.90;;
64459;SDS011;50828;53.756;21.140;2023-12-07T02:34:33;68.80;;;21.00;;
64459;SDS011;50828;53.756;21.140;2023-12-07T02:39:40;69.90;;;20.40;;
64459;SDS011;50828;53.756;21.140;2023-12-07T02:44:51;81.10;;;21.50;;
64459;SDS011;50828;53.756;21.140;2023-12-07T02:49:59;73.60;;;21.00;;
64459;SDS011;50828;53.756;21.140;2023-12-07T02:55:08;73.50;;;22.50;;
64459;SDS011;50828;53.756;21.140;2023-12-07T03:00:17;73.30;;;21.20;;
64459;SDS011;50828;53.756;21.140;2023-12-07T03:05:26;67.40;;;19.90;;
64459;SDS011;50828;53.756;21.140;2023-12-07T03:10:34;71.00;;;22.10;;
64459;SDS011;50828;53.756;21.140;2023-12-07T03:15:42;76.70;;;20.60;;
64459;SDS011;50828;53.756;21.140;2023-12-07T03:20:49;75.30;;;20.90;;
64459;SDS011;50828;53.756;21.140;2023-12-07T03:25:57;67.80;;;21.80;;
64459;SDS011;50828;53.756;21.140;2023-12-07T03:31:05;71.70;;;21.60;;
64459;SDS011;50828;53.756;21.140;2023-12-07T03:36:13;75.50;;;20.80;;
64459;SDS011;50828;53.756;21.140;2023-12-07T03:41:20;78.50;;;24.10;;
64459;SDS011;50828;53.756;21.140;2023-12-07T03:46:28;77.00;;;22.30;;
64459;SDS011;50828;53.756;21.140;2023-12-07T03:51:37;76.70;;;21.90;;
64459;SDS011;50828;53.756;21.140;2023-12-07T03:56:45;79.40;;;21.90;;
64459;SDS011;50828;53.756;21.140;2023-12-07T04:08:35;81.80;;;24.20;;
64459;SDS011;50828;53.756;21.140;2023-12-07T04:13:44;79.70;;;24.00;;
64459;SDS011;50828;53.756;21.140;2023-12-07T04:18:52;76.70;;;24.50;;
64459;SDS011;50828;53.756;21.140;2023-12-07T04:23:59;82.20;;;23.40;;
64459;SDS011;50828;53.756;21.140;2023-12-07T04:29:07;83.30;;;25.30;;
64459;SDS011;50828;53.756;21.140;2023-12-07T04:34:15;82.40;;;25.00;;
64459;SDS011;50828;53.756;21.140;2023-12-07T04:39:22;80.20;;;22.70;;
64459;SDS011;50828;53.756;21.140;2023-12-07T04:44:30;85.10;;;23.10;;
64459;SDS011;50828;53.756;21.140;2023-12-07T04:49:38;74.50;;;22.30;;
64459;SDS011;50828;53.756;21.140;2023-12-07T04:54:46;83.70;;;23.80;;
64459;SDS011;50828;53.756;21.140;2023-12-07T04:59:54;84.70;;;21.80;;
64459;SDS011;50828;53.756;21.140;2023-12-07T05:05:02;71.30;;;21.70;;
64459;SDS011;50828;53.756;21.140;2023-12-07T05:10:10;91.20;;;27.20;;
64459;SDS011;50828;53.756;21.140;2023-12-07T05:15:18;81.70;;;22.90;;
64459;SDS011;50828;53.756;21.140;2023-12-07T05:20:26;76.80;;;23.50;;
64459;SDS011;50828;53.756;21.140;2023-12-07T05:25:34;69.10;;;21.60;;
64459;SDS011;50828;53.756;21.140;2023-12-07T05:30:42;75.50;;;21.50;;
64459;SDS011;50828;53.756;21.140;2023-12-07T05:35:50;75.50;;;21.90;;
64459;SDS011;50828;53.756;21.140;2023-12-07T05:40:57;80.90;;;22.50;;
64459;SDS011;50828;53.756;21.140;2023-12-07T05:46:05;77.80;;;22.70;;
64459;SDS011;50828;53.756;21.140;2023-12-07T05:51:13;91.10;;;25.10;;
64459;SDS011;50828;53.756;21.140;2023-12-07T05:56:21;84.10;;;23.30;;
64459;SDS011;50828;53.756;21.140;2023-12-07T06:01:29;81.70;;;24.30;;
64459;SDS011;50828;53.756;21.140;2023-12-07T06:06:37;92.50;;;22.90;;
64459;SDS011;50828;53.756;21.140;2023-12-07T06:11:45;86.20;;;22.30;;
64459;SDS011;50828;53.756;21.140;2023-12-07T06:16:52;93.90;;;23.40;;
64459;SDS011;50828;53.756;21.140;2023-12-07T06:22:02;76.50;;;22.60;;
64459;SDS011;50828;53.756;21.140;2023-12-07T06:27:10;85.20;;;23.40;;
64459;SDS011;50828;53.756;21.140;2023-12-07T06:32:18;77.30;;;22.20;;
64459;SDS011;50828;53.756;21.140;2023-12-07T06:37:26;88.80;;;24.20;;
64459;SDS011;50828;53.756;21.140;2023-12-07T06:42:33;87.20;;;23.70;;
64459;SDS011;50828;53.756;21.140;2023-12-07T06:47:41;77.80;;;24.10;;
64459;SDS011;50828;53.756;21.140;2023-12-07T06:52:49;86.30;;;24.30;;
64459;SDS011;50828;53.756;21.140;2023-12-07T06:57:57;75.80;;;21.90;;
64459;SDS011;50828;53.756;21.140;2023-12-07T07:03:04;94.10;;;23.20;;
64459;SDS011;50828;53.756;21.140;2023-12-07T07:08:13;80.80;;;24.30;;
64459;SDS011;50828;53.756;21.140;2023-12-07T07:13:20;85.50;;;25.20;;
64459;SDS011;50828;53.756;21.140;2023-12-07T07:18:28;84.20;;;23.50;;
64459;SDS011;50828;53.756;21.140;2023-12-07T07:23:36;87.40;;;24.90;;
64459;SDS011;50828;53.756;21.140;2023-12-07T07:28:43;73.70;;;20.90;;
64459;SDS011;50828;53.756;21.140;2023-12-07T07:33:51;95.20;;;24.10;;
64459;SDS011;50828;53.756;21.140;2023-12-07T07:39:04;86.30;;;24.60;;
64459;SDS011;50828;53.756;21.140;2023-12-07T07:44:11;76.70;;;22.60;;
64459;SDS011;50828;53.756;21.140;2023-12-07T07:49:19;82.20;;;22.60;;
64459;SDS011;50828;53.756;21.140;2023-12-07T07:54:27;95.40;;;24.70;;
64459;SDS011;50828;53.756;21.140;2023-12-07T07:59:35;79.30;;;23.50;;
64459;SDS011;50828;53.756;21.140;2023-12-07T08:04:43;90.20;;;24.00;;
64459;SDS011;50828;53.756;21.140;2023-12-07T08:09:50;94.30;;;25.20;;
64459;SDS011;50828;53.756;21.140;2023-12-07T08:14:58;85.00;;;24.30;;
64459;SDS011;50828;53.756;21.140;2023-12-07T08:20:07;85.70;;;24.60;;
64459;SDS011;50828;53.756;21.140;2023-12-07T08:25:16;81.60;;;24.70;;
64459;SDS011;50828;53.756;21.140;2023-12-07T08:30:25;77.60;;;23.30;;
64459;SDS011;50828;53.756;21.140;2023-12-07T08:35:33;78.60;;;24.30;;
64459;SDS011;50828;53.756;21.140;2023-12-07T08:40:40;80.10;;;23.60;;
64459;SDS011;50828;53.756;21.140;2023-12-07T08:45:48;76.90;;;26.10;;
64459;SDS011;50828;53.756;21.140;2023-12-07T08:51:00;74.90;;;24.50;;
64459;SDS011;50828;53.756;21.140;2023-12-07T08:56:08;70.10;;;23.70;;
64459;SDS011;50828;53.756;21.140;2023-12-07T09:01:16;68.90;;;23.90;;
64459;SDS011;50828;53.756;21.140;2023-12-07T09:06:35;74.90;;;24.80;;
64459;SDS011;50828;53.756;21.140;2023-12-07T09:11:43;69.00;;;23.60;;
64459;SDS011;50828;53.756;21.140;2023-12-07T09:16:50;61.30;;;21.70;;
64459;SDS011;50828;53.756;21.140;2023-12-07T09:21:58;62.50;;;22.80;;
64459;SDS011;50828;53.756;21.140;2023-12-07T09:27:05;55.40;;;21.00;;
64459;SDS011;50828;53.756;21.140;2023-12-07T09:32:15;63.50;;;23.00;;
64459;SDS011;50828;53.756;21.140;2023-12-07T09:37:32;58.60;;;22.60;;
64459;SDS011;50828;53.756;21.140;2023-12-07T09:42:39;60.80;;;23.30;;
64459;SDS011;50828;53.756;21.140;2023-12-07T09:47:48;55.10;;;21.80;;
64459;SDS011;50828;53.756;21.140;2023-12-07T09:52:57;56.40;;;22.60;;
64459;SDS011;50828;53.756;21.140;2023-12-07T09:58:11;61.40;;;21.80;;
64459;SDS011;50828;53.756;21.140;2023-12-07T10:03:22;52.90;;;22.40;;
64459;SDS011;50828;53.756;21.140;2023-12-07T10:08:31;67.90;;;27.40;;
64459;SDS011;50828;53.756;21.140;2023-12-07T10:13:40;58.30;;;23.30;;
64459;SDS011;50828;53.756;21.140;2023-12-07T10:18:47;59.30;;;22.10;;
64459;SDS011;50828;53.756;21.140;2023-12-07T10:23:54;48.60;;;20.20;;
64459;SDS011;50828;53.756;21.140;2023-12-07T10:29:02;51.80;;;20.80;;
64459;SDS011;50828;53.756;21.140;2023-12-07T10:34:19;48.60;;;20.60;;
64459;SDS011;50828;53.756;21.140;2023-12-07T10:39:27;51.50;;;19.80;;
64459;SDS011;50828;53.756;21.140;2023-12-07T10:44:40;39.60;;;18.90;;
64459;SDS011;50828;53.756;21.140;2023-12-07T10:49:50;39.60;;;19.20;;
64459;SDS011;50828;53.756;21.140;2023-12-07T10:55:05;48.20;;;19.80;;
64459;SDS011;50828;53.756;21.140;2023-12-07T11:00:18;44.40;;;19.00;;
64459;SDS011;50828;53.756;21.140;2023-12-07T11:05:43;39.50;;;17.50;;
64459;SDS011;50828;53.756;21.140;2023-12-07T11:10:53;41.80;;;19.30;;
64459;SDS011;50828;53.756;21.140;2023-12-07T11:16:09;38.00;;;17.40;;
64459;SDS011;50828;53.756;21.140;2023-12-07T11:21:17;37.00;;;17.10;;
64459;SDS011;50828;53.756;21.140;2023-12-07T11:26:25;35.70;;;17.90;;
64459;SDS011;50828;53.756;21.140;2023-12-07T11:31:32;36.70;;;17.70;;
64459;SDS011;50828;53.756;21.140;2023-12-07T11:36:40;31.90;;;16.10;;
64459;SDS011;50828;53.756;21.140;2023-12-07T11:41:49;31.70;;;16.00;;
64459;SDS011;50828;53.756;21.140;2023-12-07T11:46:58;39.90;;;17.90;;
64459;SDS011;50828;53.756;21.140;2023-12-07T11:52:16;39.70;;;19.40;;
64459;SDS011;50828;53.756;21.140;2023-12-07T11:57:24;36.00;;;16.20;;
64459;SDS011;50828;53.756;21.140;2023-12-07T12:02:31;33.60;;;16.70;;
64459;SDS011;50828;53.756;21.140;2023-12-07T12:07:41;31.80;;;16.60;;
64459;SDS011;50828;53.756;21.140;2023-12-07T12:12:48;30.00;;;16.30;;
64459;SDS011;50828;53.756;21.140;2023-12-07T12:17:57;31.10;;;16.40;;
64459;SDS011;50828;53.756;21.140;2023-12-07T12:23:05;31.30;;;15.10;;
64459;SDS011;50828;53.756;21.140;2023-12-07T12:28:13;29.70;;;15.40;;
64459;SDS011;50828;53.756;21.140;2023-12-07T12:33:22;29.20;;;15.10;;
64459;SDS011;50828;53.756;21.140;2023-12-07T12:38:30;39.50;;;20.00;;
64459;SDS011;50828;53.756;21.140;2023-12-07T12:43:46;34.30;;;17.40;;
64459;SDS011;50828;53.756;21.140;2023-12-07T12:48:54;38.00;;;16.60;;
64459;SDS011;50828;53.756;21.140;2023-12-07T12:54:03;34.10;;;16.10;;
64459;SDS011;50828;53.756;21.140;2023-12-07T12:59:19;35.10;;;15.80;;
64459;SDS011;50828;53.756;21.140;2023-12-07T13:04:27;31.50;;;15.30;;
64459;SDS011;50828;53.756;21.140;2023-12-07T13:09:44;28.20;;;15.20;;
64459;SDS011;50828;53.756;21.140;2023-12-07T13:14:51;30.20;;;14.90;;
64459;SDS011;50828;53.756;21.140;2023-12-07T13:20:02;32.90;;;15.70;;
64459;SDS011;50828;53.756;21.140;2023-12-07T13:25:10;30.40;;;15.70;;
64459;SDS011;50828;53.756;21.140;2023-12-07T13:30:18;30.70;;;15.50;;
64459;SDS011;50828;53.756;21.140;2023-12-07T13:35:25;29.10;;;15.40;;
64459;SDS011;50828;53.756;21.140;2023-12-07T13:40:33;31.10;;;15.70;;
64459;SDS011;50828;53.756;21.140;2023-12-07T13:45:40;30.60;;;15.70;;
64459;SDS011;50828;53.756;21.140;2023-12-07T13:50:48;33.90;;;17.20;;
64459;SDS011;50828;53.756;21.140;2023-12-07T13:55:55;29.20;;;15.30;;
64459;SDS011;50828;53.756;21.140;2023-12-07T14:01:03;30.20;;;15.10;;
64459;SDS011;50828;53.756;21.140;2023-12-07T14:06:11;30.70;;;15.60;;
64459;SDS011;50828;53.756;21.140;2023-12-07T14:11:27;42.40;;;23.30;;
64459;SDS011;50828;53.756;21.140;2023-12-07T14:16:34;40.30;;;22.40;;
64459;SDS011;50828;53.756;21.140;2023-12-07T14:22:03;34.70;;;17.70;;
64459;SDS011;50828;53.756;21.140;2023-12-07T14:27:12;31.90;;;16.10;;
64459;SDS011;50828;53.756;21.140;2023-12-07T14:32:19;28.00;;;15.90;;
64459;SDS011;50828;53.756;21.140;2023-12-07T14:37:28;29.70;;;15.70;;
64459;SDS011;50828;53.756;21.140;2023-12-07T14:42:35;30.80;;;14.80;;
64459;SDS011;50828;53.756;21.140;2023-12-07T14:47:43;35.90;;;14.80;;
64459;SDS011;50828;53.756;21.140;2023-12-07T14:52:50;29.40;;;15.20;;
64459;SDS011;50828;53.756;21.140;2023-12-07T14:57:58;27.00;;;14.20;;
64459;SDS011;50828;53.756;21.140;2023-12-07T15:03:06;30.40;;;15.90;;
64459;SDS011;50828;53.756;21.140;2023-12-07T15:08:13;27.20;;;14.50;;
64459;SDS011;50828;53.756;21.140;2023-12-07T15:13:21;27.20;;;14.80;;
64459;SDS011;50828;53.756;21.140;2023-12-07T15:18:28;27.30;;;13.90;;
64459;SDS011;50828;53.756;21.140;2023-12-07T15:23:39;29.90;;;15.40;;
64459;SDS011;50828;53.756;21.140;2023-12-07T15:28:46;27.80;;;15.10;;
64459;SDS011;50828;53.756;21.140;2023-12-07T15:33:53;28.80;;;15.20;;
64459;SDS011;50828;53.756;21.140;2023-12-07T15:39:01;31.10;;;15.30;;
64459;SDS011;50828;53.756;21.140;2023-12-07T15:44:10;75.20;;;33.10;;
64459;SDS011;50828;53.756;21.140;2023-12-07T15:49:25;79.10;;;37.00;;
64459;SDS011;50828;53.756;21.140;2023-12-07T15:54:32;43.70;;;22.00;;
64459;SDS011;50828;53.756;21.140;2023-12-07T15:59:43;31.30;;;17.30;;
64459;SDS011;50828;53.756;21.140;2023-12-07T16:04:50;29.70;;;15.50;;
64459;SDS011;50828;53.756;21.140;2023-12-07T16:09:58;28.20;;;15.20;;
64459;SDS011;50828;53.756;21.140;2023-12-07T16:15:06;31.60;;;15.40;;
64459;SDS011;50828;53.756;21.140;2023-12-07T16:20:14;29.40;;;14.50;;
64459;SDS011;50828;53.756;21.140;2023-12-07T16:25:23;25.70;;;14.20;;
64459;SDS011;50828;53.756;21.140;2023-12-07T16:30:31;29.70;;;14.20;;
64459;SDS011;50828;53.756;21.140;2023-12-07T16:35:50;27.50;;;15.10;;
64459;SDS011;50828;53.756;21.140;2023-12-07T16:40:58;25.20;;;13.60;;
64459;SDS011;50828;53.756;21.140;2023-12-07T16:46:07;26.00;;;14.00;;
64459;SDS011;50828;53.756;21.140;2023-12-07T16:51:14;28.40;;;15.00;;
64459;SDS011;50828;53.756;21.140;2023-12-07T16:56:22;27.40;;;13.50;;
64459;SDS011;50828;53.756;21.140;2023-12-07T17:01:29;28.60;;;14.00;;
64459;SDS011;50828;53.756;21.140;2023-12-07T17:06:37;31.70;;;14.70;;
64459;SDS011;50828;53.756;21.140;2023-12-07T17:11:58;29.20;;;14.90;;
64459;SDS011;50828;53.756;21.140;2023-12-07T17:17:06;29.30;;;15.00;;
64459;SDS011;50828;53.756;21.140;2023-12-07T17:22:13;25.50;;;14.10;;
64459;SDS011;50828;53.756;21.140;2023-12-07T17:27:21;38.70;;;19.40;;
64459;SDS011;50828;53.756;21.140;2023-12-07T17:32:28;31.10;;;15.40;;
64459;SDS011;50828;53.756;21.140;2023-12-07T17:37:36;27.50;;;14.20;;
64459;SDS011;50828;53.756;21.140;2023-12-07T17:42:43;29.00;;;15.60;;
64459;SDS011;50828;53.756;21.140;2023-12-07T17:47:50;29.90;;;16.00;;
64459;SDS011;50828;53.756;21.140;2023-12-07T17:52:57;21.10;;;12.30;;
64459;SDS011;50828;53.756;21.140;2023-12-07T17:58:05;29.50;;;13.50;;
64459;SDS011;50828;53.756;21.140;2023-12-07T18:03:12;25.50;;;13.50;;
64459;SDS011;50828;53.756;21.140;2023-12-07T18:08:20;27.30;;;13.20;;
64459;SDS011;50828;53.756;21.140;2023-12-07T18:13:27;24.00;;;13.50;;
64459;SDS011;50828;53.756;21.140;2023-12-07T18:18:34;23.80;;;13.10;;
64459;SDS011;50828;53.756;21.140;2023-12-07T18:23:42;26.80;;;13.40;;
64459;SDS011;50828;53.756;21.140;2023-12-07T18:28:49;23.20;;;13.10;;
64459;SDS011;50828;53.756;21.140;2023-12-07T18:33:57;29.50;;;14.50;;
64459;SDS011;50828;53.756;21.140;2023-12-07T18:39:04;22.50;;;11.70;;
64459;SDS011;50828;53.756;21.140;2023-12-07T18:44:12;24.50;;;13.50;;
64459;SDS011;50828;53.756;21.140;2023-12-07T18:49:19;21.60;;;12.30;;
64459;SDS011;50828;53.756;21.140;2023-12-07T18:54:28;28.30;;;15.00;;
64459;SDS011;50828;53.756;21.140;2023-12-07T18:59:39;35.90;;;16.10;;
64459;SDS011;50828;53.756;21.140;2023-12-07T19:04:47;30.80;;;15.90;;
64459;SDS011;50828;53.756;21.140;2023-12-07T19:09:54;31.10;;;14.10;;
64459;SDS011;50828;53.756;21.140;2023-12-07T19:15:01;24.30;;;12.20;;
64459;SDS011;50828;53.756;21.140;2023-12-07T19:20:10;20.90;;;12.00;;
64459;SDS011;50828;53.756;21.140;2023-12-07T19:25:18;23.90;;;11.70;;
64459;SDS011;50828;53.756;21.140;2023-12-07T19:30:25;17.00;;;9.70;;
64459;SDS011;50828;53.756;21.140;2023-12-07T19:35:33;19.80;;;10.70;;
64459;SDS011;50828;53.756;21.140;2023-12-07T19:40:40;21.90;;;10.70;;
64459;SDS011;50828;53.756;21.140;2023-12-07T19:45:48;16.40;;;9.70;;
64459;SDS011;50828;53.756;21.140;2023-12-07T19:50:55;20.70;;;10.60;;
64459;SDS011;50828;53.756;21.140;2023-12-07T19:56:03;20.20;;;10.80;;
64459;SDS011;50828;53.756;21.140;2023-12-07T20:01:12;18.40;;;9.70;;
64459;SDS011;50828;53.756;21.140;2023-12-07T20:06:19;19.40;;;10.20;;
64459;SDS011;50828;53.756;21.140;2023-12-07T20:11:40;18.50;;;9.90;;
64459;SDS011;50828;53.756;21.140;2023-12-07T20:16:48;18.00;;;9.50;;
64459;SDS011;50828;53.756;21.140;2023-12-07T20:21:56;19.40;;;9.70;;
64459;SDS011;50828;53.756;21.140;2023-12-07T20:27:04;18.70;;;9.80;;
64459;SDS011;50828;53.756;21.140;2023-12-07T20:32:11;19.50;;;10.10;;
64459;SDS011;50828;53.756;21.140;2023-12-07T20:37:19;20.80;;;10.00;;
64459;SDS011;50828;53.756;21.140;2023-12-07T20:42:27;18.60;;;9.60;;
64459;SDS011;50828;53.756;21.140;2023-12-07T20:47:34;19.30;;;10.00;;
64459;SDS011;50828;53.756;21.140;2023-12-07T20:52:41;20.80;;;9.90;;
64459;SDS011;50828;53.756;21.140;2023-12-07T20:57:49;20.90;;;10.60;;
64459;SDS011;50828;53.756;21.140;2023-12-07T21:02:56;19.30;;;10.20;;
64459;SDS011;50828;53.756;21.140;2023-12-07T21:08:04;20.00;;;9.80;;
64459;SDS011;50828;53.756;21.140;2023-12-07T21:13:13;21.20;;;10.60;;
64459;SDS011;50828;53.756;21.140;2023-12-07T21:18:20;21.30;;;11.00;;
64459;SDS011;50828;53.756;21.140;2023-12-07T21:23:27;22.90;;;10.10;;
64459;SDS011;50828;53.756;21.140;2023-12-07T21:28:35;23.60;;;10.60;;
64459;SDS011;50828;53.756;21.140;2023-12-07T21:33:43;20.50;;;10.20;;
64459;SDS011;50828;53.756;21.140;2023-12-07T21:38:50;25.40;;;11.00;;
64459;SDS011;50828;53.756;21.140;2023-12-07T21:43:57;26.10;;;11.80;;
64459;SDS011;50828;53.756;21.140;2023-12-07T21:49:04;24.20;;;11.00;;
64459;SDS011;50828;53.756;21.140;2023-12-07T21:54:12;21.40;;;10.90;;
64459;SDS011;50828;53.756;21.140;2023-12-07T21:59:19;26.40;;;11.50;;
64459;SDS011;50828;53.756;21.140;2023-12-07T22:04:26;20.20;;;10.80;;
64459;SDS011;50828;53.756;21.140;2023-12-07T22:09:33;20.20;;;11.20;;
64459;SDS011;50828;53.756;21.140;2023-12-07T22:14:42;25.50;;;12.40;;
64459;SDS011;50828;53.756;21.140;2023-12-07T22:19:50;28.00;;;12.90;;
64459;SDS011;50828;53.756;21.140;2023-12-07T22:24:57;26.50;;;12.70;;
64459;SDS011;50828;53.756;21.140;2023-12-07T22:30:05;26.50;;;11.70;;
64459;SDS011;50828;53.756;21.140;2023-12-07T22:35:14;22.80;;;11.00;;
64459;SDS011;50828;53.756;21.140;2023-12-07T22:40:22;25.20;;;11.60;;
64459;SDS011;50828;53.756;21.140;2023-12-07T22:45:29;26.20;;;11.50;;
64459;SDS011;50828;53.756;21.140;2023-12-07T22:50:36;25.00;;;11.70;;
64459;SDS011;50828;53.756;21.140;2023-12-07T22:55:44;27.30;;;12.60;;
64459;SDS011;50828;53.756;21.140;2023-12-07T23:00:51;24.60;;;11.70;;
64459;SDS011;50828;53.756;21.140;2023-12-07T23:05:58;24.60;;;11.50;;
64459;SDS011;50828;53.756;21.140;2023-12-07T23:11:05;22.20;;;10.90;;
64459;SDS011;50828;53.756;21.140;2023-12-07T23:16:14;26.30;;;12.10;;
64459;SDS011;50828;53.756;21.140;2023-12-07T23:21:21;28.00;;;12.30;;
64459;SDS011;50828;53.756;21.140;2023-12-07T23:26:28;28.20;;;13.00;;
64459;SDS011;50828;53.756;21.140;2023-12-07T23:31:35;23.60;;;12.50;;
64459;SDS011;50828;53.756;21.140;2023-12-07T23:36:43;28.80;;;12.10;;
64459;SDS011;50828;53.756;21.140;2023-12-07T23:41:51;26.90;;;12.40;;
64459;SDS011;50828;53.756;21.140;2023-12-07T23:46:58;24.30;;;12.20;;
64459;SDS011;50828;53.756;21.140;2023-12-07T23:52:06;23.40;;;11.40;;
64459;SDS011;50828;53.756;21.140;2023-12-07T23:57:13;26.30;;;12.30;;
